Daihatsumaru — JD2764 — position and weather

sailwx.info

Track history (hours):
 
Tides and Currents Weather Stations Pressure Air Temp Water Temp Dewpoint Dewpoint Depression Visibility Wind Speed Wind Dir Waves Ship Positions

Daihatsumaru

Last reported at 2016-Feb-14 07:31 UTC. Time now 2016-Feb-14 08:10 UTC.
Position N 34°41' E 135°23'.

Length 106 m; draft 4.5 m.

Type: Cargo ship. MMSI: 431000701.

Date/timePositionNaut miles runAvg speedWind from/ knotsBaromVisibWave heightAir tempDewpointWater temp
2016-Feb-14 07:31N 34°41' E 135°23'0 0.0
2016-Feb-14 06:25N 34°41' E 135°23'0 0.0
2016-Feb-14 05:25N 34°41' E 135°23'0 0.0
2016-Feb-14 04:31N 34°41' E 135°23'0 0.0
2016-Feb-14 03:31N 34°41' E 135°23'0 0.0
2016-Feb-14 02:31N 34°41' E 135°23'0 0.0
2016-Feb-14 01:31N 34°41' E 135°23'0 0.0
2016-Feb-14 00:31N 34°41' E 135°23'0 0.0
2016-Feb-13 23:31N 34°41' E 135°23'0 0.0
2016-Feb-13 22:34N 34°41' E 135°23'9 9.5
2016-Feb-13 21:34N 34°35' E 135°14'1615.8
2016-Feb-13 20:32N 34°35' E 134°55'6 0.2
2016-Feb-12 04:18N 34°37' E 135°02'1215.6
2016-Feb-12 03:33N 34°37' E 135°16'7 6.1
2016-Feb-12 02:25N 34°41' E 135°23'0 0.0
2016-Feb-12 01:25N 34°41' E 135°23'0 0.0
2016-Feb-12 00:31N 34°41' E 135°23'0 0.0
2016-Feb-11 23:31N 34°41' E 135°23'3 3.0
2016-Feb-11 22:33N 34°40' E 135°20'0 0.0
2016-Feb-11 21:29N 34°40' E 135°20'0 0.0
2016-Feb-11 20:29N 34°40' E 135°20'0 0.0
2016-Feb-11 19:27N 34°40' E 135°20'1011.0
2016-Feb-11 18:33N 34°35' E 135°10'1515.1
2016-Feb-11 17:33N 34°35' E 134°52'8 0.2
2016-Feb-10 04:26N 34°37' E 135°01'1314.3
2016-Feb-10 03:33N 34°37' E 135°16'7 6.6
2016-Feb-10 02:28N 34°41' E 135°23'0 0.0
2016-Feb-10 01:16N 34°41' E 135°23'0 0.0
2016-Feb-10 00:28N 34°41' E 135°23'0 0.0
2016-Feb-09 23:28N 34°41' E 135°23'3 1.5
2016-Feb-09 21:31N 34°40' E 135°20'0 0.1
2016-Feb-09 20:31N 34°40' E 135°20'0 0.0
2016-Feb-09 19:31N 34°40' E 135°20'0 0.1
2016-Feb-09 18:33N 34°40' E 135°20'1413.6
2016-Feb-09 17:34N 34°35' E 135°05'4 0.1
2016-Feb-08 03:27N 34°37' E 135°01'1314.5
2016-Feb-08 02:33N 34°38' E 135°17'7 6.1
2016-Feb-08 01:30N 34°41' E 135°23'0 0.0
2016-Feb-08 00:30N 34°41' E 135°23'0 0.0
2016-Feb-07 23:30N 34°41' E 135°23'0 0.0
2016-Feb-07 22:28N 34°41' E 135°23'0 0.0
2016-Feb-07 21:28N 34°41' E 135°23'0 0.0
2016-Feb-07 20:16N 34°41' E 135°23'0 0.0
2016-Feb-07 19:22N 34°41' E 135°23'0 0.0
2016-Feb-07 18:22N 34°41' E 135°23'0 0.0
2016-Feb-07 17:28N 34°41' E 135°23'0 0.0
2016-Feb-07 16:22N 34°41' E 135°23'0 0.0
2016-Feb-07 15:28N 34°41' E 135°23'0 0.0
2016-Feb-07 14:28N 34°41' E 135°23'0 0.0
2016-Feb-07 13:28N 34°41' E 135°23'0 0.0
2016-Feb-07 12:28N 34°41' E 135°23'0 0.0
2016-Feb-07 11:28N 34°41' E 135°23'0 0.0
2016-Feb-07 10:28N 34°41' E 135°23'0 0.0
2016-Feb-07 09:22N 34°41' E 135°23'0 0.0
2016-Feb-07 08:28N 34°41' E 135°23'0 0.0
2016-Feb-07 07:28N 34°41' E 135°23'0 0.0
2016-Feb-07 06:22N 34°41' E 135°23'0 0.0
2016-Feb-07 05:22N 34°41' E 135°23'0 0.0
2016-Feb-07 04:10N 34°41' E 135°23'0 0.0
2016-Feb-07 03:10N 34°41' E 135°23'0 0.0
2016-Feb-07 02:28N 34°41' E 135°23'0 0.0
2016-Feb-07 01:28N 34°41' E 135°23'0 0.0
2016-Feb-07 00:28N 34°41' E 135°23'0 0.0
2016-Feb-06 23:22N 34°41' E 135°23'0 0.0
2016-Feb-06 22:33N 34°41' E 135°23'2 2.4
2016-Feb-06 21:33N 34°39' E 135°22'0 0.1
2016-Feb-06 20:33N 34°39' E 135°22'0 0.0
2016-Feb-06 19:33N 34°39' E 135°22'8 8.1
2016-Feb-06 18:33N 34°35' E 135°13'1615.6
2016-Feb-06 17:33N 34°35' E 134°54'3 0.1
2016-Feb-05 05:05N 34°35' E 134°51'813.3
2016-Feb-05 04:28N 34°37' E 135°01'1213.3
2016-Feb-05 03:33N 34°37' E 135°16'7 6.8
2016-Feb-05 02:29N 34°41' E 135°23'0 0.0
2016-Feb-05 01:29N 34°41' E 135°23'0 0.0
2016-Feb-05 00:29N 34°41' E 135°23'0 0.0
2016-Feb-04 23:29N 34°41' E 135°23'3 1.3
2016-Feb-04 21:30N 34°40' E 135°21'0 0.0
2016-Feb-04 20:24N 34°40' E 135°21'0 0.0
2016-Feb-04 19:30N 34°40' E 135°21'1 1.3
2016-Feb-04 18:33N 34°39' E 135°20'1414.0
2016-Feb-04 17:33N 34°36' E 135°03'  
Track history (hours):
 
Tides and Currents Weather Stations Pressure Air Temp Water Temp Dewpoint Dewpoint Depression Visibility Wind Speed Wind Dir Waves Ship Positions

Daihatsumaru

Last reported at 2016-Feb-14 07:31 UTC. Time now 2016-Feb-14 08:10 UTC.
Position N 34°41' E 135°23'.

Length 106 m; draft 4.5 m.

Type: Cargo ship. MMSI: 431000701.

Date/timePositionNaut miles runAvg speedWind from/ knotsBaromVisibWave heightAir tempDewpointWater temp
2016-Feb-14 07:31N 34°41' E 135°23'0 0.0
2016-Feb-14 06:25N 34°41' E 135°23'0 0.0
2016-Feb-14 05:25N 34°41' E 135°23'0 0.0
2016-Feb-14 04:31N 34°41' E 135°23'0 0.0
2016-Feb-14 03:31N 34°41' E 135°23'0 0.0
2016-Feb-14 02:31N 34°41' E 135°23'0 0.0
2016-Feb-14 01:31N 34°41' E 135°23'0 0.0
2016-Feb-14 00:31N 34°41' E 135°23'0 0.0
2016-Feb-13 23:31N 34°41' E 135°23'0 0.0
2016-Feb-13 22:34N 34°41' E 135°23'9 9.5
2016-Feb-13 21:34N 34°35' E 135°14'1615.8
2016-Feb-13 20:32N 34°35' E 134°55'6 0.2
2016-Feb-12 04:18N 34°37' E 135°02'1215.6
2016-Feb-12 03:33N 34°37' E 135°16'7 6.1
2016-Feb-12 02:25N 34°41' E 135°23'0 0.0
2016-Feb-12 01:25N 34°41' E 135°23'0 0.0
2016-Feb-12 00:31N 34°41' E 135°23'0 0.0
2016-Feb-11 23:31N 34°41' E 135°23'3 3.0
2016-Feb-11 22:33N 34°40' E 135°20'0 0.0
2016-Feb-11 21:29N 34°40' E 135°20'0 0.0
2016-Feb-11 20:29N 34°40' E 135°20'0 0.0
2016-Feb-11 19:27N 34°40' E 135°20'1011.0
2016-Feb-11 18:33N 34°35' E 135°10'1515.1
2016-Feb-11 17:33N 34°35' E 134°52'8 0.2
2016-Feb-10 04:26N 34°37' E 135°01'1314.3
2016-Feb-10 03:33N 34°37' E 135°16'7 6.6
2016-Feb-10 02:28N 34°41' E 135°23'0 0.0
2016-Feb-10 01:16N 34°41' E 135°23'0 0.0
2016-Feb-10 00:28N 34°41' E 135°23'0 0.0
2016-Feb-09 23:28N 34°41' E 135°23'3 1.5
2016-Feb-09 21:31N 34°40' E 135°20'0 0.1
2016-Feb-09 20:31N 34°40' E 135°20'0 0.0
2016-Feb-09 19:31N 34°40' E 135°20'0 0.1
2016-Feb-09 18:33N 34°40' E 135°20'1413.6
2016-Feb-09 17:34N 34°35' E 135°05'4 0.1
2016-Feb-08 03:27N 34°37' E 135°01'1314.5
2016-Feb-08 02:33N 34°38' E 135°17'7 6.1
2016-Feb-08 01:30N 34°41' E 135°23'0 0.0
2016-Feb-08 00:30N 34°41' E 135°23'0 0.0
2016-Feb-07 23:30N 34°41' E 135°23'0 0.0
2016-Feb-07 22:28N 34°41' E 135°23'0 0.0
2016-Feb-07 21:28N 34°41' E 135°23'0 0.0
2016-Feb-07 20:16N 34°41' E 135°23'0 0.0
2016-Feb-07 19:22N 34°41' E 135°23'0 0.0
2016-Feb-07 18:22N 34°41' E 135°23'0 0.0
2016-Feb-07 17:28N 34°41' E 135°23'0 0.0
2016-Feb-07 16:22N 34°41' E 135°23'0 0.0
2016-Feb-07 15:28N 34°41' E 135°23'0 0.0
2016-Feb-07 14:28N 34°41' E 135°23'0 0.0
2016-Feb-07 13:28N 34°41' E 135°23'0 0.0
2016-Feb-07 12:28N 34°41' E 135°23'0 0.0
2016-Feb-07 11:28N 34°41' E 135°23'0 0.0
2016-Feb-07 10:28N 34°41' E 135°23'0 0.0
2016-Feb-07 09:22N 34°41' E 135°23'0 0.0
2016-Feb-07 08:28N 34°41' E 135°23'0 0.0
2016-Feb-07 07:28N 34°41' E 135°23'0 0.0
2016-Feb-07 06:22N 34°41' E 135°23'0 0.0
2016-Feb-07 05:22N 34°41' E 135°23'0 0.0
2016-Feb-07 04:10N 34°41' E 135°23'0 0.0
2016-Feb-07 03:10N 34°41' E 135°23'0 0.0
2016-Feb-07 02:28N 34°41' E 135°23'0 0.0
2016-Feb-07 01:28N 34°41' E 135°23'0 0.0
2016-Feb-07 00:28N 34°41' E 135°23'0 0.0
2016-Feb-06 23:22N 34°41' E 135°23'0 0.0
2016-Feb-06 22:33N 34°41' E 135°23'2 2.4
2016-Feb-06 21:33N 34°39' E 135°22'0 0.1
2016-Feb-06 20:33N 34°39' E 135°22'0 0.0
2016-Feb-06 19:33N 34°39' E 135°22'8 8.1
2016-Feb-06 18:33N 34°35' E 135°13'1615.6
2016-Feb-06 17:33N 34°35' E 134°54'3 0.1
2016-Feb-05 05:05N 34°35' E 134°51'813.3
2016-Feb-05 04:28N 34°37' E 135°01'1213.3
2016-Feb-05 03:33N 34°37' E 135°16'7 6.8
2016-Feb-05 02:29N 34°41' E 135°23'0 0.0
2016-Feb-05 01:29N 34°41' E 135°23'0 0.0
2016-Feb-05 00:29N 34°41' E 135°23'0 0.0
2016-Feb-04 23:29N 34°41' E 135°23'3 1.3
2016-Feb-04 21:30N 34°40' E 135°21'0 0.0
2016-Feb-04 20:24N 34°40' E 135°21'0 0.0
2016-Feb-04 19:30N 34°40' E 135°21'1 1.3
2016-Feb-04 18:33N 34°39' E 135°20'1414.0
2016-Feb-04 17:33N 34°36' E 135°03'  

Dump ship's entire track history